Dowa, Malawi
Current Conditions -  °F | °C
As of 5:00 AM on Sunday 26 Oct 2014 (Local Time) from FQLC Reporting Station
Scattered Clouds Scattered Clouds  
Wind Chill: 18°   Ceiling: Unl
Heat Index: 18°   Visibility: 6mi
Dew Point: 12°   Wind: 17mph
Humidity: 68%   Direction: 100°E
Pressure: 30.12"   Gusts: NA
Location:  13.65°S, 33.93°E
Report Text: FQLC 260300Z 10015KT 9999 FEW025 SCT/// 18/12 Q1020
Loading
Personal Weather Stations






























Interactive Weather Map
Tropical Storm Tracking
New forecast layout! Learn more

10-Day Weather Forecast

Advertisements
Track Severe Weather on mobile